Time;durP1;ratioP1;P1;durP2;ratioP2;P2;SDS_P1;SDS_P2;PMS_P1;PMS_P2;Temp;Humidity;BMP_temperature;BMP_pressure;BME280_temperature;BME280_humidity;BME280_pressure;Samples;Min_cycle;Max_cycle;Signal;HPM_P1;HPM_P2
2022/01/10 00:00:38;;;;;;;29.40;14.87;;;2.50;99.90;;;;;;5058158;28;20520;-62
2022/01/10 00:03:06;;;;;;;33.37;15.90;;;2.50;99.90;;;;;;5057927;28;20891;-62
2022/01/10 00:05:38;;;;;;;25.20;15.23;;;2.60;99.90;;;;;;5054714;28;20557;-62
2022/01/10 00:08:05;;;;;;;30.97;15.37;;;2.60;99.90;;;;;;5052564;28;20462;-62
2022/01/10 00:10:33;;;;;;;27.80;16.80;;;2.60;99.90;;;;;;5051902;28;20955;-62
2022/01/10 00:13:00;;;;;;;27.40;15.10;;;2.60;99.90;;;;;;5054795;28;20873;-62
2022/01/10 00:15:31;;;;;;;33.80;17.00;;;2.60;99.90;;;;;;5057832;28;20825;-61
2022/01/10 00:17:58;;;;;;;36.70;17.30;;;2.60;99.90;;;;;;5057604;28;20565;-62
2022/01/10 00:20:25;;;;;;;32.80;16.83;;;2.60;99.90;;;;;;5056442;28;20544;-62
2022/01/10 00:22:54;;;;;;;27.00;14.97;;;2.50;99.90;;;;;;5053926;28;20916;-61
2022/01/10 00:25:26;;;;;;;20.50;14.20;;;2.50;99.90;;;;;;5057901;28;20462;-62
2022/01/10 00:27:55;;;;;;;28.13;15.70;;;2.50;99.90;;;;;;5055099;28;20466;-60
2022/01/10 00:30:24;;;;;;;24.80;16.17;;;2.40;99.90;;;;;;5051642;28;20472;-62
2022/01/10 00:32:52;;;;;;;25.00;14.60;;;2.40;99.90;;;;;;5053281;28;20549;-61
2022/01/10 00:35:19;;;;;;;22.60;14.90;;;2.30;99.90;;;;;;5050519;28;20471;-58
2022/01/10 00:37:47;;;;;;;31.53;15.23;;;2.20;99.90;;;;;;5052435;28;20467;-61
2022/01/10 00:40:17;;;;;;;18.87;13.60;;;2.20;99.90;;;;;;5054380;28;20776;-61
2022/01/10 00:42:53;;;;;;;27.47;14.63;;;2.10;99.90;;;;;;5049971;28;20492;-61
2022/01/10 00:45:23;;;;;;;22.60;15.13;;;2.00;99.90;;;;;;5056895;28;20527;-60
2022/01/10 00:47:50;;;;;;;22.20;14.77;;;1.80;99.90;;;;;;5057391;28;20454;-61
2022/01/10 00:50:18;;;;;;;31.07;14.50;;;1.80;99.90;;;;;;5054857;28;20428;-61
2022/01/10 00:52:48;;;;;;;23.20;14.60;;;1.60;99.90;;;;;;5056071;28;20490;-58
2022/01/10 00:55:22;;;;;;;30.93;15.47;;;1.60;99.90;;;;;;5057470;28;20486;-59
2022/01/10 00:57:49;;;;;;;27.60;15.60;;;1.50;99.90;;;;;;5055393;28;20486;-61
2022/01/10 01:00:20;;;;;;;24.20;14.27;;;1.60;99.90;;;;;;5055571;28;20462;-57
2022/01/10 01:02:47;;;;;;;25.07;15.83;;;1.60;99.90;;;;;;5053490;28;20569;-56
2022/01/10 01:05:17;;;;;;;28.00;16.47;;;1.60;99.90;;;;;;5053860;28;20497;-57
2022/01/10 01:07:45;;;;;;;29.13;16.07;;;1.70;99.90;;;;;;5051346;28;20466;-57
2022/01/10 01:13:05;;;;;;;26.13;16.47;;;1.60;99.90;;;;;;5023476;28;20938;-57
2022/01/10 01:15:34;;;;;;;25.83;16.07;;;1.50;99.90;;;;;;5056013;28;20549;-57
2022/01/10 01:18:16;;;;;;;26.77;16.30;;;1.50;99.90;;;;;;5057184;28;20462;-53
2022/01/10 01:24:00;;;;;;;27.70;16.27;;;1.50;99.90;;;;;;5055705;28;20483;-59
2022/01/10 01:26:18;;;;;;;26.10;16.17;;;1.30;99.90;;;;;;5051777;28;20932;-58
2022/01/10 01:28:47;;;;;;;29.33;15.60;;;1.30;99.90;;;;;;5054992;28;20516;-58
2022/01/10 01:31:15;;;;;;;32.47;17.77;;;1.30;99.90;;;;;;5056882;28;21003;-59
2022/01/10 01:33:42;;;;;;;31.10;16.37;;;1.20;99.90;;;;;;5056215;28;20959;-56
2022/01/10 01:36:09;;;;;;;23.63;15.67;;;1.20;99.90;;;;;;5056259;28;20454;-52
2022/01/10 01:38:39;;;;;;;27.10;15.13;;;1.10;99.90;;;;;;5052873;28;20465;-57
2022/01/10 01:41:24;;;;;;;26.73;16.87;;;1.00;99.90;;;;;;5055457;28;20470;-58
2022/01/10 01:43:54;;;;;;;32.33;18.40;;;1.00;99.90;;;;;;5056460;28;20506;-57
2022/01/10 01:46:22;;;;;;;27.80;15.13;;;0.90;99.90;;;;;;5055019;28;20500;-57
2022/01/10 01:48:53;;;;;;;24.13;14.53;;;0.90;99.90;;;;;;5052365;28;20837;-59
2022/01/10 01:51:21;;;;;;;23.40;15.33;;;0.70;99.90;;;;;;5053236;28;20541;-57
2022/01/10 01:53:50;;;;;;;23.67;14.30;;;0.80;99.90;;;;;;5051925;28;20468;-56
2022/01/10 01:56:17;;;;;;;30.03;15.97;;;0.80;99.90;;;;;;5052368;28;20454;-57
2022/01/10 01:58:46;;;;;;;24.53;15.57;;;0.70;99.90;;;;;;5056538;28;20803;-56
2022/01/10 02:01:16;;;;;;;19.93;14.90;;;0.50;99.90;;;;;;5056447;28;20459;-59
2022/01/10 02:03:43;;;;;;;24.30;14.97;;;0.50;99.90;;;;;;5056047;28;20461;-54
2022/01/10 02:06:14;;;;;;;24.17;16.87;;;0.50;99.90;;;;;;5056006;28;20566;-58
2022/01/10 02:08:44;;;;;;;27.80;14.60;;;0.60;99.90;;;;;;5053546;28;20499;-56
2022/01/10 02:11:17;;;;;;;32.60;17.63;;;0.60;99.90;;;;;;5051426;28;20454;-57
2022/01/10 02:13:45;;;;;;;25.03;15.90;;;0.70;99.90;;;;;;5053347;28;20844;-57
2022/01/10 02:16:20;;;;;;;29.33;15.27;;;0.70;99.90;;;;;;5056250;28;20464;-56
2022/01/10 02:18:49;;;;;;;35.60;16.80;;;0.70;99.90;;;;;;5054194;28;20465;-55
2022/01/10 02:21:17;;;;;;;31.37;17.37;;;0.70;99.90;;;;;;5051129;28;20436;-58
2022/01/10 02:23:44;;;;;;;25.57;15.57;;;0.80;99.90;;;;;;5054038;28;20466;-53
2022/01/10 02:26:12;;;;;;;31.10;15.90;;;0.80;99.90;;;;;;5050939;28;20499;-57
2022/01/10 02:28:39;;;;;;;34.10;13.97;;;0.70;99.90;;;;;;5054597;28;20466;-57
2022/01/10 02:31:07;;;;;;;38.93;17.33;;;0.60;99.90;;;;;;5052812;28;20462;-58
2022/01/10 02:33:34;;;;;;;111.77;20.63;;;0.70;99.90;;;;;;5052451;28;20493;-58
2022/01/10 02:36:13;;;;;;;174.70;25.37;;;0.60;99.90;;;;;;5053058;28;20709;-59
2022/01/10 02:38:48;;;;;;;22.53;14.23;;;0.60;99.90;;;;;;5052067;28;20462;-58
2022/01/10 02:44:37;;;;;;;30.30;14.00;;;0.50;99.90;;;;;;5055878;28;20789;-58
2022/01/10 02:47:09;;;;;;;25.03;14.93;;;0.40;99.90;;;;;;5054140;28;20466;-56
2022/01/10 02:49:37;;;;;;;29.80;15.63;;;0.40;99.90;;;;;;5051022;28;20568;-59
2022/01/10 02:52:06;;;;;;;23.67;14.60;;;0.40;99.90;;;;;;5056074;28;20882;-58
2022/01/10 02:54:35;;;;;;;28.23;15.90;;;0.30;99.90;;;;;;5055415;28;20473;-59
2022/01/10 02:57:02;;;;;;;23.80;14.83;;;0.30;99.90;;;;;;5056180;28;20512;-59
2022/01/10 02:59:29;;;;;;;26.70;14.23;;;0.20;99.90;;;;;;5054926;28;20490;-59
2022/01/10 03:01:56;;;;;;;26.40;15.43;;;0.10;99.90;;;;;;5057142;28;20826;-57
2022/01/10 03:04:24;;;;;;;24.80;16.10;;;0.10;99.90;;;;;;5055780;28;20465;-56
2022/01/10 03:06:51;;;;;;;28.03;15.23;;;0.10;99.90;;;;;;5057800;28;20822;-58
2022/01/10 03:09:18;;;;;;;26.73;16.13;;;0.10;99.90;;;;;;5054705;28;20458;-57
2022/01/10 03:11:46;;;;;;;28.20;15.57;;;0.10;99.90;;;;;;5059142;28;20536;-57
2022/01/10 03:14:13;;;;;;;34.37;17.87;;;0.10;99.90;;;;;;5058686;28;20504;-58
2022/01/10 03:16:41;;;;;;;51.90;16.30;;;0.00;99.90;;;;;;5058359;28;20492;-59
2022/01/10 03:19:07;;;;;;;62.23;18.00;;;0.00;99.90;;;;;;5059252;28;20563;-58
2022/01/10 03:21:35;;;;;;;105.80;21.00;;;0.00;99.90;;;;;;5057191;28;20481;-58
2022/01/10 03:24:03;;;;;;;33.40;15.47;;;0.00;99.90;;;;;;5059124;28;20468;-58
2022/01/10 03:26:31;;;;;;;61.87;17.90;;;0.00;99.90;;;;;;5057638;28;20546;-51
2022/01/10 03:28:59;;;;;;;33.80;15.60;;;0.00;99.90;;;;;;5059495;28;20506;-58
2022/01/10 03:31:27;;;;;;;41.57;14.67;;;0.00;99.90;;;;;;5058061;28;20433;-57
2022/01/10 03:33:54;;;;;;;32.17;13.37;;;0.00;99.90;;;;;;5059261;28;20485;-58
2022/01/10 03:36:21;;;;;;;88.57;18.80;;;0.00;99.90;;;;;;5058820;28;20462;-58
2022/01/10 03:38:48;;;;;;;145.77;21.23;;;0.00;99.90;;;;;;5060058;28;20857;-58
2022/01/10 03:41:15;;;;;;;134.07;21.30;;;0.00;99.90;;;;;;5059452;28;20451;-58
2022/01/10 03:43:42;;;;;;;175.43;23.50;;;0.00;99.90;;;;;;5058324;28;20519;-58
2022/01/10 03:46:14;;;;;;;75.97;18.47;;;0.00;99.90;;;;;;5055587;28;20437;-57
2022/01/10 03:48:41;;;;;;;79.23;16.77;;;0.10;99.90;;;;;;5056966;28;20440;-59
2022/01/10 03:51:08;;;;;;;77.83;16.47;;;0.10;99.90;;;;;;5059083;28;20504;-55
2022/01/10 03:53:36;;;;;;;130.33;19.47;;;0.00;99.90;;;;;;5058100;28;20558;-59
2022/01/10 03:56:09;;;;;;;31.13;13.53;;;-0.10;99.90;;;;;;5059037;28;20744;-59
2022/01/10 03:58:36;;;;;;;46.13;14.70;;;0.00;99.90;;;;;;5057403;28;20801;-59
2022/01/10 04:01:05;;;;;;;20.60;13.40;;;0.10;99.90;;;;;;5056020;28;20466;-59
2022/01/10 04:03:33;;;;;;;27.20;13.20;;;0.10;99.90;;;;;;5058287;28;20477;-57
2022/01/10 04:06:00;;;;;;;27.07;13.80;;;0.10;99.90;;;;;;5054336;28;20466;-59
2022/01/10 04:08:28;;;;;;;53.40;15.83;;;0.10;99.90;;;;;;5056850;28;20750;-58
2022/01/10 04:10:55;;;;;;;81.77;16.77;;;0.10;99.90;;;;;;5059219;28;20458;-58
2022/01/10 04:13:24;;;;;;;29.80;13.63;;;0.00;99.90;;;;;;5057344;28;20771;-59
2022/01/10 04:15:52;;;;;;;24.03;13.53;;;0.00;99.90;;;;;;5058615;28;20807;-56
2022/01/10 04:18:19;;;;;;;23.67;13.20;;;0.10;99.90;;;;;;5059383;28;20493;-57
2022/01/10 04:20:50;;;;;;;62.47;15.33;;;0.10;99.90;;;;;;5059082;28;20482;-58
2022/01/10 04:23:18;;;;;;;44.20;14.60;;;0.10;99.90;;;;;;5056040;28;20781;-59
2022/01/10 04:25:45;;;;;;;49.53;16.27;;;0.10;99.90;;;;;;5058919;28;21116;-58
2022/01/10 04:28:13;;;;;;;53.30;15.60;;;0.20;99.90;;;;;;5058529;28;20462;-59
2022/01/10 04:30:40;;;;;;;29.53;14.43;;;0.20;99.90;;;;;;5059082;28;20498;-58
2022/01/10 04:33:07;;;;;;;24.13;14.90;;;0.20;99.90;;;;;;5059392;28;20544;-58
2022/01/10 04:35:34;;;;;;;25.23;14.13;;;0.20;99.90;;;;;;5058694;28;20472;-59
2022/01/10 04:38:03;;;;;;;21.43;12.87;;;0.20;99.90;;;;;;5059051;28;20520;-57
2022/01/10 04:40:30;;;;;;;23.63;14.87;;;0.30;99.90;;;;;;5059347;28;20516;-56
2022/01/10 04:42:57;;;;;;;21.40;14.23;;;0.30;99.90;;;;;;5058807;28;20464;-58
2022/01/10 04:45:24;;;;;;;23.80;14.00;;;0.30;99.90;;;;;;5056494;28;20466;-59
2022/01/10 04:47:54;;;;;;;24.90;15.40;;;0.30;99.90;;;;;;5054618;28;20458;-59
2022/01/10 04:50:44;;;;;;;27.47;15.50;;;0.30;99.90;;;;;;5058464;28;20442;-59
2022/01/10 04:53:13;;;;;;;22.20;14.83;;;0.30;99.90;;;;;;5058703;28;20961;-58
2022/01/10 04:55:40;;;;;;;22.60;14.37;;;0.20;99.90;;;;;;5058936;28;20462;-59
2022/01/10 04:58:07;;;;;;;20.77;15.90;;;0.20;99.90;;;;;;5058293;28;20432;-58
2022/01/10 05:00:34;;;;;;;23.27;15.13;;;0.20;99.90;;;;;;5057354;28;20494;-58
2022/01/10 05:03:01;;;;;;;22.03;14.13;;;0.10;99.90;;;;;;5056699;28;20495;-59
2022/01/10 05:05:31;;;;;;;26.43;14.30;;;0.10;99.90;;;;;;5054083;28;20471;-57
2022/01/10 05:07:58;;;;;;;21.20;14.67;;;0.00;99.90;;;;;;5058347;28;20446;-59
2022/01/10 05:10:29;;;;;;;20.07;13.97;;;0.00;99.90;;;;;;5058669;28;20455;-58
2022/01/10 05:12:57;;;;;;;25.33;14.67;;;-0.10;99.90;;;;;;5055528;28;20501;-58
2022/01/10 05:15:24;;;;;;;23.37;14.70;;;-0.20;99.90;;;;;;5045024;28;20470;-58
2022/01/10 05:17:51;;;;;;;23.30;14.43;;;-0.30;99.90;;;;;;5039293;28;20525;-58
2022/01/10 05:20:20;;;;;;;21.00;15.67;;;-0.20;99.90;;;;;;5054254;28;20517;-59
2022/01/10 05:22:47;;;;;;;23.60;16.53;;;-0.30;99.90;;;;;;5057546;28;20524;-59
2022/01/10 05:25:14;;;;;;;24.30;14.90;;;-0.40;99.90;;;;;;5059031;28;20501;-58
2022/01/10 05:27:42;;;;;;;23.27;16.70;;;-0.50;99.90;;;;;;5058611;28;20465;-54
2022/01/10 05:30:10;;;;;;;21.90;16.37;;;-0.40;99.90;;;;;;5056331;28;20490;-57
2022/01/10 05:32:38;;;;;;;26.37;16.77;;;-0.50;99.90;;;;;;5056500;28;20536;-58
2022/01/10 05:35:06;;;;;;;20.10;14.80;;;-0.50;99.90;;;;;;5058933;28;21150;-58
2022/01/10 05:37:33;;;;;;;24.30;15.33;;;-0.50;99.90;;;;;;5055923;28;20906;-57
2022/01/10 05:40:00;;;;;;;25.23;16.97;;;-0.50;99.90;;;;;;5056476;28;20788;-59
2022/01/10 05:42:27;;;;;;;24.30;15.37;;;-0.50;99.90;;;;;;5056821;28;20887;-58
2022/01/10 05:44:55;;;;;;;23.73;16.10;;;-0.60;99.90;;;;;;5057993;28;20512;-56
2022/01/10 05:47:22;;;;;;;25.67;15.53;;;-0.60;99.90;;;;;;5053675;28;20474;-58
2022/01/10 05:49:49;;;;;;;24.83;15.50;;;-0.60;99.90;;;;;;5058212;28;20492;-59
2022/01/10 05:52:16;;;;;;;36.47;18.37;;;-0.60;99.90;;;;;;5056870;28;20555;-56
2022/01/10 05:54:43;;;;;;;28.60;17.77;;;-0.60;99.90;;;;;;5057926;28;20500;-59
2022/01/10 05:57:11;;;;;;;71.67;21.60;;;-0.50;99.90;;;;;;5058338;28;21034;-55
2022/01/10 05:59:40;;;;;;;77.10;23.80;;;-0.40;99.90;;;;;;5057995;28;20469;-57
2022/01/10 06:02:09;;;;;;;136.20;30.07;;;-0.40;99.90;;;;;;5056766;28;20492;-57
2022/01/10 06:04:36;;;;;;;89.00;25.57;;;-0.30;99.90;;;;;;5057674;28;20753;-59
2022/01/10 06:07:03;;;;;;;62.33;21.60;;;-0.30;99.90;;;;;;5057778;28;20977;-59
2022/01/10 06:09:30;;;;;;;74.77;25.60;;;-0.20;99.90;;;;;;5056903;28;20472;-54
2022/01/10 06:11:57;;;;;;;50.07;21.07;;;-0.10;99.90;;;;;;5056719;28;20747;-57
2022/01/10 06:14:24;;;;;;;33.03;19.17;;;-0.10;99.90;;;;;;5058090;28;20500;-59
2022/01/10 06:16:51;;;;;;;39.57;20.60;;;0.00;99.90;;;;;;5058611;28;20523;-58
2022/01/10 06:19:22;;;;;;;41.60;19.17;;;0.00;99.90;;;;;;5055539;28;20808;-60
2022/01/10 06:21:49;;;;;;;32.70;18.53;;;0.10;99.90;;;;;;5054955;28;20895;-57
2022/01/10 06:24:16;;;;;;;27.17;17.03;;;0.10;99.90;;;;;;5057031;28;20465;-55
2022/01/10 06:26:43;;;;;;;29.60;18.27;;;0.20;99.90;;;;;;5057262;28;20469;-56
2022/01/10 06:29:10;;;;;;;36.10;19.33;;;0.20;99.90;;;;;;5056841;28;20469;-58
2022/01/10 06:31:37;;;;;;;27.50;17.90;;;0.30;99.90;;;;;;5058083;28;20466;-59
2022/01/10 06:34:04;;;;;;;30.77;18.40;;;0.30;99.90;;;;;;5056162;28;20497;-59
2022/01/10 06:36:33;;;;;;;32.20;18.60;;;0.30;99.90;;;;;;5058058;28;20466;-57
2022/01/10 06:39:00;;;;;;;36.60;18.30;;;0.40;99.90;;;;;;5061096;28;20459;-58
2022/01/10 06:41:27;;;;;;;31.77;17.87;;;0.40;99.90;;;;;;5061381;28;20814;-59
2022/01/10 06:43:57;;;;;;;30.07;18.57;;;0.40;99.90;;;;;;5061757;28;20435;-58
2022/01/10 06:46:24;;;;;;;26.57;17.50;;;0.40;99.90;;;;;;5061238;28;20433;-60
2022/01/10 06:48:51;;;;;;;33.27;18.90;;;0.50;99.90;;;;;;5061204;28;20486;-60
2022/01/10 06:51:18;;;;;;;30.13;17.70;;;0.50;99.90;;;;;;5060459;28;20493;-59
2022/01/10 06:53:46;;;;;;;27.70;17.53;;;0.50;99.90;;;;;;5057981;28;20472;-59
2022/01/10 06:56:13;;;;;;;29.77;17.80;;;0.50;99.90;;;;;;5062238;28;20822;-59
2022/01/10 06:58:40;;;;;;;29.73;18.20;;;0.60;99.90;;;;;;5061979;28;20436;-60
2022/01/10 07:01:07;;;;;;;25.07;15.80;;;0.60;99.90;;;;;;5061329;28;20466;-58
2022/01/10 07:03:34;;;;;;;29.77;18.37;;;0.60;99.90;;;;;;5058703;28;20517;-57
2022/01/10 07:06:01;;;;;;;33.30;19.97;;;0.60;99.90;;;;;;5053658;28;20511;-60
2022/01/10 07:08:28;;;;;;;30.80;18.40;;;0.60;99.90;;;;;;5061627;28;20440;-58
2022/01/10 07:10:57;;;;;;;26.77;17.30;;;0.70;99.90;;;;;;5060704;28;20437;-60
2022/01/10 07:13:24;;;;;;;28.67;17.90;;;0.60;99.90;;;;;;5060695;28;20563;-60
2022/01/10 07:15:52;;;;;;;26.43;17.63;;;0.70;99.90;;;;;;5061733;28;20842;-60
2022/01/10 07:18:22;;;;;;;33.23;17.53;;;0.70;99.90;;;;;;5061563;28;20461;-59
2022/01/10 07:20:48;;;;;;;28.17;17.73;;;0.80;99.90;;;;;;5061153;28;20757;-60
2022/01/10 07:23:15;;;;;;;36.40;20.50;;;0.80;99.90;;;;;;5059294;28;20478;-59
2022/01/10 07:25:42;;;;;;;30.47;19.20;;;0.80;99.90;;;;;;5061275;28;20497;-59
2022/01/10 07:28:11;;;;;;;31.27;21.17;;;0.80;99.90;;;;;;5058462;28;20436;-59
2022/01/10 07:30:38;;;;;;;30.03;19.53;;;0.80;99.90;;;;;;5056277;28;20461;-60
2022/01/10 07:33:05;;;;;;;30.70;20.53;;;0.70;99.90;;;;;;5059589;28;20573;-58
2022/01/10 07:35:32;;;;;;;33.83;20.40;;;0.80;99.90;;;;;;5060870;28;20462;-60
2022/01/10 07:38:01;;;;;;;33.93;18.87;;;0.70;99.90;;;;;;5059676;28;21001;-60
2022/01/10 07:40:29;;;;;;;29.13;18.60;;;0.70;99.90;;;;;;5058628;28;20462;-59
2022/01/10 07:42:56;;;;;;;29.40;18.67;;;0.70;99.90;;;;;;5058782;28;20754;-60
2022/01/10 07:45:24;;;;;;;31.73;19.70;;;0.80;99.90;;;;;;5055313;28;20493;-60
2022/01/10 07:47:52;;;;;;;28.03;17.90;;;0.80;99.90;;;;;;5055644;28;20440;-60
2022/01/10 07:50:19;;;;;;;33.07;20.43;;;0.80;99.90;;;;;;5060059;28;20850;-59
2022/01/10 07:52:46;;;;;;;27.40;18.47;;;0.90;99.90;;;;;;5058196;28;20497;-59
2022/01/10 07:55:16;;;;;;;31.20;19.00;;;0.90;99.90;;;;;;5059679;28;20871;-59
2022/01/10 07:57:43;;;;;;;33.63;19.43;;;0.90;99.90;;;;;;5059305;28;20543;-58
2022/01/10 08:00:10;;;;;;;38.17;23.10;;;0.90;99.90;;;;;;5060427;28;20516;-60
2022/01/10 08:02:39;;;;;;;32.50;23.27;;;0.90;99.90;;;;;;5059455;28;20497;-60
2022/01/10 08:05:08;;;;;;;41.07;30.97;;;0.90;99.90;;;;;;5054176;28;20508;-60
2022/01/10 08:07:35;;;;;;;42.90;33.53;;;0.90;99.90;;;;;;5052206;28;21020;-60
2022/01/10 08:10:02;;;;;;;40.87;28.87;;;1.00;99.90;;;;;;5059561;28;20968;-60
2022/01/10 08:12:32;;;;;;;34.67;24.50;;;1.00;99.90;;;;;;5053004;28;20498;-59
2022/01/10 08:15:01;;;;;;;36.17;22.10;;;1.00;99.90;;;;;;5053613;28;20461;-59
2022/01/10 08:17:28;;;;;;;29.83;20.00;;;1.00;99.90;;;;;;5052632;28;20437;-59
2022/01/10 08:19:59;;;;;;;31.53;21.03;;;1.10;99.90;;;;;;5055057;28;20458;-60
2022/01/10 08:22:28;;;;;;;31.67;20.97;;;1.10;99.90;;;;;;5055763;28;20520;-56
2022/01/10 08:24:55;;;;;;;31.07;19.33;;;1.10;99.90;;;;;;5051672;28;20458;-60
2022/01/10 08:27:23;;;;;;;33.97;20.83;;;1.10;99.90;;;;;;5040407;28;20497;-60
2022/01/10 08:29:50;;;;;;;27.07;18.90;;;1.10;99.90;;;;;;5058646;28;20462;-60
2022/01/10 08:32:17;;;;;;;32.27;18.80;;;1.10;99.90;;;;;;5058709;28;20462;-60
2022/01/10 08:34:46;;;;;;;37.30;20.73;;;1.10;99.90;;;;;;5057681;28;20486;-61
2022/01/10 08:37:18;;;;;;;30.63;20.17;;;1.10;99.90;;;;;;5057808;28;20450;-60
2022/01/10 08:39:49;;;;;;;32.30;23.53;;;1.10;99.90;;;;;;5057821;28;20481;-60
2022/01/10 08:42:16;;;;;;;37.10;23.17;;;1.10;99.90;;;;;;5057907;28;20505;-61
2022/01/10 08:44:43;;;;;;;32.20;21.90;;;1.20;99.90;;;;;;5051883;28;20775;-60
2022/01/10 08:47:12;;;;;;;36.63;22.20;;;1.30;99.90;;;;;;5055470;28;21245;-60
2022/01/10 08:49:39;;;;;;;31.00;22.53;;;1.30;99.90;;;;;;5050044;28;20905;-60
2022/01/10 08:52:10;;;;;;;36.47;22.03;;;1.40;99.90;;;;;;5053161;28;20477;-58
2022/01/10 08:54:40;;;;;;;29.50;19.10;;;1.30;99.90;;;;;;5057022;28;20494;-59
2022/01/10 08:57:10;;;;;;;36.07;22.10;;;1.40;99.90;;;;;;5057379;28;20454;-57
2022/01/10 08:59:43;;;;;;;31.97;22.13;;;1.30;99.90;;;;;;5053660;28;20458;-60
2022/01/10 09:02:10;;;;;;;35.80;24.00;;;1.30;99.90;;;;;;5057281;28;20469;-60
2022/01/10 09:04:40;;;;;;;36.00;23.47;;;1.30;99.90;;;;;;5058045;28;20457;-60
2022/01/10 09:07:11;;;;;;;38.60;23.80;;;1.40;99.90;;;;;;5056954;28;20462;-59
2022/01/10 09:09:39;;;;;;;37.30;24.00;;;1.50;99.90;;;;;;5052632;28;20513;-59
2022/01/10 09:12:07;;;;;;;37.23;22.30;;;1.50;99.90;;;;;;5050469;28;20933;-60
2022/01/10 09:14:40;;;;;;;32.90;21.53;;;1.40;99.90;;;;;;5050911;28;20483;-59
2022/01/10 09:17:10;;;;;;;34.47;22.50;;;1.30;99.90;;;;;;5053836;28;20462;-59
2022/01/10 09:19:37;;;;;;;33.27;22.47;;;1.30;99.90;;;;;;5050452;28;20536;-60
2022/01/10 09:22:07;;;;;;;34.13;22.57;;;1.30;99.90;;;;;;5054977;28;20470;-59
2022/01/10 09:24:34;;;;;;;36.33;21.37;;;1.30;99.90;;;;;;5057048;28;20461;-56
2022/01/10 09:27:02;;;;;;;39.80;22.33;;;1.40;99.90;;;;;;5057621;28;20486;-58
2022/01/10 09:29:32;;;;;;;35.20;21.90;;;1.50;99.90;;;;;;5053877;28;20462;-58
2022/01/10 09:31:59;;;;;;;38.93;21.80;;;1.50;99.90;;;;;;5052260;28;20454;-58
2022/01/10 09:34:26;;;;;;;33.70;22.20;;;1.60;99.90;;;;;;5052658;28;20518;-58
2022/01/10 09:36:53;;;;;;;47.53;22.20;;;1.50;99.90;;;;;;5055923;28;20556;-57
2022/01/10 09:39:20;;;;;;;39.20;22.30;;;1.60;99.90;;;;;;5056245;28;20466;-58
2022/01/10 09:41:48;;;;;;;40.80;23.40;;;1.70;99.90;;;;;;5055413;28;20532;-59
2022/01/10 09:44:20;;;;;;;42.70;23.37;;;1.80;99.90;;;;;;5056804;28;20840;-60
2022/01/10 09:46:48;;;;;;;40.20;22.43;;;1.80;99.90;;;;;;5056076;28;20742;-57
2022/01/10 09:49:18;;;;;;;48.57;24.63;;;1.90;99.90;;;;;;5056573;28;20564;-57
2022/01/10 09:51:45;;;;;;;36.80;25.23;;;2.00;99.90;;;;;;5055472;28;20478;-58
2022/01/10 09:54:13;;;;;;;41.67;25.50;;;2.00;99.90;;;;;;5055165;28;20627;-59
2022/01/10 09:56:41;;;;;;;41.40;25.17;;;2.10;99.90;;;;;;5054331;28;20774;-54
2022/01/10 09:59:08;;;;;;;36.73;23.37;;;2.10;99.90;;;;;;5055531;28;20883;-59
2022/01/10 10:01:37;;;;;;;47.40;24.80;;;2.20;99.90;;;;;;5056010;28;20462;-60
2022/01/10 10:04:04;;;;;;;272.77;52.87;;;2.50;99.90;;;;;;5056763;28;20476;-59
2022/01/10 10:06:33;;;;;;;91.10;32.53;;;2.80;99.90;;;;;;5055802;28;20591;-58
2022/01/10 10:09:01;;;;;;;55.70;27.40;;;3.40;99.90;;;;;;5056698;28;20465;-60
2022/01/10 10:11:39;;;;;;;125.33;39.60;;;3.70;99.90;;;;;;5051113;28;20455;-62
2022/01/10 10:14:08;;;;;;;49.10;25.83;;;3.90;99.90;;;;;;5057823;28;20587;-62
2022/01/10 10:16:39;;;;;;;54.23;26.67;;;4.30;99.90;;;;;;5059636;28;20465;-63
2022/01/10 10:19:06;;;;;;;73.90;27.73;;;4.60;99.90;;;;;;5060711;28;20466;-63
2022/01/10 10:21:34;;;;;;;110.10;33.13;;;4.80;99.90;;;;;;5060025;28;20521;-63
2022/01/10 10:24:04;;;;;;;45.00;26.43;;;5.20;99.90;;;;;;5059843;28;20862;-63
2022/01/10 10:26:31;;;;;;;41.20;24.77;;;5.30;99.90;;;;;;5060789;28;20466;-63
2022/01/10 10:29:03;;;;;;;42.20;24.20;;;5.70;99.90;;;;;;5060813;28;20485;-64
2022/01/10 10:31:32;;;;;;;36.93;24.47;;;5.80;99.90;;;;;;5059988;28;20548;-64
2022/01/10 10:34:03;;;;;;;36.10;23.80;;;5.90;99.90;;;;;;5059346;28;20481;-64
2022/01/10 10:36:34;;;;;;;44.80;25.73;;;5.90;99.90;;;;;;5060389;28;20466;-64
2022/01/10 10:39:07;;;;;;;47.63;25.10;;;6.10;99.90;;;;;;5059975;28;20580;-64
2022/01/10 10:41:34;;;;;;;41.03;24.30;;;6.10;99.90;;;;;;5060270;28;20907;-64
2022/01/10 10:44:02;;;;;;;42.90;24.60;;;6.30;99.90;;;;;;5059881;28;20462;-64
2022/01/10 10:46:29;;;;;;;35.63;25.40;;;6.30;99.90;;;;;;5060511;28;20500;-61
2022/01/10 10:49:03;;;;;;;36.80;24.87;;;6.20;99.90;;;;;;5059486;28;20466;-61
2022/01/10 10:51:34;;;;;;;40.17;24.00;;;6.10;99.90;;;;;;5058052;28;20527;-60
2022/01/10 10:54:06;;;;;;;35.87;24.27;;;6.00;99.90;;;;;;5059484;28;20485;-61
2022/01/10 10:56:34;;;;;;;43.60;26.17;;;6.10;99.90;;;;;;5060182;28;20502;-61
2022/01/10 10:59:02;;;;;;;37.40;24.90;;;6.10;99.90;;;;;;5059345;28;20515;-61
2022/01/10 11:01:29;;;;;;;43.07;24.80;;;6.10;99.90;;;;;;5059853;28;20512;-60
2022/01/10 11:03:58;;;;;;;39.07;25.67;;;6.20;99.90;;;;;;5059385;28;20543;-61
2022/01/10 11:06:30;;;;;;;39.00;24.83;;;6.20;99.90;;;;;;5059654;28;20753;-61
2022/01/10 11:09:00;;;;;;;46.13;25.37;;;6.50;99.90;;;;;;5059942;28;20465;-60
2022/01/10 11:11:29;;;;;;;41.13;25.67;;;6.90;99.90;;;;;;5052583;28;20463;-62
2022/01/10 11:13:58;;;;;;;40.77;25.67;;;7.30;99.90;;;;;;5053825;28;20496;-62
2022/01/10 11:16:26;;;;;;;33.43;23.50;;;7.70;99.90;;;;;;5060007;28;20466;-60
2022/01/10 11:18:56;;;;;;;51.73;26.40;;;7.50;99.90;;;;;;5059872;28;20526;-62
2022/01/10 11:21:25;;;;;;;39.43;24.17;;;7.70;99.90;;;;;;5057758;28;20838;-61
2022/01/10 11:23:55;;;;;;;35.50;22.13;;;7.90;99.90;;;;;;5058874;28;20829;-62
2022/01/10 11:26:37;;;;;;;39.63;24.10;;;8.30;99.90;;;;;;5059479;28;20470;-62
2022/01/10 11:29:06;;;;;;;30.73;21.73;;;8.50;60.60;;;;;;5059341;28;20462;-62
2022/01/10 11:31:35;;;;;;;35.83;22.20;;;8.70;99.90;;;;;;5058463;28;20524;-62
2022/01/10 11:34:02;;;;;;;32.47;21.83;;;8.90;18.60;;;;;;5058784;28;20471;-62
2022/01/10 11:36:30;;;;;;;36.33;24.30;;;9.20;18.30;;;;;;5059118;28;20467;-62
2022/01/10 11:38:59;;;;;;;32.10;21.80;;;9.30;1.00;;;;;;5059021;28;20906;-59
2022/01/10 11:41:31;;;;;;;43.57;25.10;;;9.50;1.00;;;;;;5058132;28;20466;-61
2022/01/10 11:44:10;;;;;;;33.47;22.50;;;9.70;1.00;;;;;;5058725;28;20467;-62
2022/01/10 11:46:39;;;;;;;44.70;23.53;;;9.70;1.00;;;;;;5058868;28;20462;-61
2022/01/10 11:49:19;;;;;;;29.50;22.90;;;9.80;1.00;;;;;;5059274;28;20469;-62
2022/01/10 11:51:59;;;;;;;32.20;22.47;;;9.90;1.00;;;;;;5057059;28;20466;-62
2022/01/10 11:54:29;;;;;;;27.50;20.27;;;10.00;1.00;;;;;;5058585;28;20516;-63
2022/01/10 11:56:59;;;;;;;34.53;21.63;;;10.00;1.00;;;;;;5058846;28;20473;-62
2022/01/10 11:59:28;;;;;;;31.10;18.30;;;10.10;1.00;;;;;;5058781;28;20471;-61
2022/01/10 12:02:03;;;;;;;37.17;20.40;;;10.20;1.00;;;;;;5057798;28;20436;-61
2022/01/10 12:04:32;;;;;;;28.47;19.60;;;10.30;1.00;;;;;;5059172;28;20465;-62
2022/01/10 12:07:02;;;;;;;28.43;19.17;;;10.50;1.00;;;;;;5038381;28;20463;-62
2022/01/10 12:09:32;;;;;;;30.93;19.33;;;10.60;1.00;;;;;;5038416;28;20474;-62
2022/01/10 12:12:02;;;;;;;28.47;18.67;;;10.60;1.00;;;;;;5048884;28;20532;-62
2022/01/10 12:14:29;;;;;;;22.23;17.77;;;10.70;1.00;;;;;;5038108;28;20561;-62
2022/01/10 12:16:58;;;;;;;41.43;20.20;;;10.50;1.00;;;;;;5054499;28;20462;-61
2022/01/10 12:19:25;;;;;;;22.30;17.10;;;10.70;1.00;;;;;;5058615;28;20559;-61
2022/01/10 12:21:56;;;;;;;22.63;15.57;;;10.80;1.00;;;;;;5057404;28;20547;-62
2022/01/10 12:24:26;;;;;;;32.57;17.50;;;10.90;1.00;;;;;;5058197;28;20535;-62
2022/01/10 12:26:53;;;;;;;26.17;17.60;;;10.60;1.00;;;;;;5058069;28;20463;-60
2022/01/10 12:29:24;;;;;;;20.43;14.07;;;10.60;1.00;;;;;;5058557;28;20497;-63
2022/01/10 12:31:54;;;;;;;13.77;8.80;;;10.50;1.00;;;;;;5058187;28;20735;-63
2022/01/10 12:34:23;;;;;;;21.80;11.30;;;10.20;1.00;;;;;;5057038;28;20463;-63
2022/01/10 12:36:51;;;;;;;15.83;8.63;;;9.70;1.00;;;;;;5055501;28;20813;-63
2022/01/10 12:39:27;;;;;;;15.27;9.70;;;9.40;1.00;;;;;;5056685;28;20600;-63
2022/01/10 12:41:56;;;;;;;15.90;10.67;;;9.30;1.00;;;;;;5056140;28;20486;-63
2022/01/10 12:44:26;;;;;;;18.03;11.57;;;9.20;1.00;;;;;;5056792;28;20543;-62
2022/01/10 12:46:53;;;;;;;16.10;9.90;;;8.80;1.00;;;;;;5057770;28;20892;-63
2022/01/10 12:49:21;;;;;;;15.53;11.00;;;8.80;1.00;;;;;;5058232;28;20458;-63
2022/01/10 12:51:52;;;;;;;23.87;13.40;;;8.70;1.00;;;;;;5056250;28;20513;-63